Skyland, Alabama
Current Conditions -  °F | °C
As of 11:53 PM on Saturday 22 Nov 2014 (Local Time) from KTCL Reporting Station
Overcast Overcast  
Wind Chill: 60°   Ceiling: 2200
Heat Index: 60°   Visibility: 10mi
Dew Point: 52°   Wind: 8mph
Humidity: 75%   Direction: 120°ESE
Pressure: 30.04"   Gusts: NA
Location:  33.1197°N, 87.5295°W
Report Text: KTCL 230553Z AUTO 12007KT 10SM OVC022 16/11 A3004 RMK AO2 SLP171 T01560111 10189 20156 402110044 58021
Loading
Personal Weather Stations






























Interactive Weather Map New forecast layout! Learn more

10-Day Weather Forecast

Advertisements
Track Severe Weather on mobile